Kirksville Regional Airport


Codes: KIRK/IRK
Name: Kirksville Regional Airport
City: Kirksville
Country: United States
Elevation: 966 ft.
Wikipedia:

Photos at Kirksville Regional Airport


   Photos courtesy of SpottingLog. You can add your own sightings and photos by signing up for a free trial today.



No photos found.

Weather at Kirksville Regional Airport


Time (UTC)DescriptionTempratureWindCloud coverageVisibilityPressureHumidity
19-Apr-2024 03:00Scattered Clouds8°C11 mph, N40%10000m1019hPa86%
19-Apr-2024 06:00Scattered Clouds7°C11 mph, NW37%10000m1020hPa84%
19-Apr-2024 09:00Few Clouds5°C9 mph, NW17%10000m1022hPa80%
19-Apr-2024 12:00Few Clouds3°C7 mph, NW13%10000m1025hPa77%
19-Apr-2024 15:00Scattered Clouds10°C11 mph, NW47%10000m1025hPa39%
19-Apr-2024 18:00Broken Clouds13°C13 mph, NW61%10000m1024hPa35%
19-Apr-2024 21:00Overcast Clouds13°C16 mph, NW96%10000m1023hPa37%
20-Apr-2024 00:00Overcast Clouds11°C9 mph, NW95%10000m1023hPa52%
20-Apr-2024 03:00Broken Clouds6°C7 mph, NW76%10000m1026hPa63%
20-Apr-2024 06:00Overcast Clouds5°C7 mph, NW89%10000m1026hPa61%
20-Apr-2024 09:00Broken Clouds3°C7 mph, NW56%10000m1028hPa66%
20-Apr-2024 12:00Broken Clouds3°C7 mph, NW80%10000m1029hPa63%
20-Apr-2024 15:00Overcast Clouds7°C13 mph, NW99%10000m1029hPa45%
20-Apr-2024 18:00Broken Clouds10°C13 mph, NW76%10000m1028hPa41%
20-Apr-2024 21:00Scattered Clouds11°C13 mph, NW38%10000m1026hPa43%
21-Apr-2024 00:00Scattered Clouds9°C9 mph, NW49%10000m1026hPa54%
21-Apr-2024 03:00Broken Clouds6°C7 mph, NW73%10000m1027hPa60%
21-Apr-2024 06:00Overcast Clouds4°C7 mph, NW87%10000m1027hPa67%
21-Apr-2024 09:00Broken Clouds3°C7 mph, NW53%10000m1026hPa68%
21-Apr-2024 12:00Scattered Clouds3°C7 mph, NW27%10000m1026hPa71%
21-Apr-2024 15:00Clear Sky10°C7 mph, NW0%10000m1026hPa49%
21-Apr-2024 18:00Clear Sky13°C9 mph, NW2%10000m1024hPa41%
21-Apr-2024 21:00Overcast Clouds14°C9 mph, NW93%10000m1021hPa39%
22-Apr-2024 00:00Overcast Clouds12°C4 mph, NW85%10000m1020hPa56%
22-Apr-2024 03:00Clear Sky7°C2 mph, W7%10000m1021hPa63%
22-Apr-2024 06:00Clear Sky6°C7 mph, W7%10000m1020hPa77%
22-Apr-2024 09:00Clear Sky5°C7 mph, SW1%10000m1019hPa81%
22-Apr-2024 12:00Few Clouds5°C7 mph, SW17%10000m1019hPa83%
22-Apr-2024 15:00Broken Clouds12°C11 mph, S65%10000m1017hPa60%
22-Apr-2024 18:00Broken Clouds16°C18 mph, S82%10000m1013hPa49%
22-Apr-2024 21:00Overcast Clouds17°C18 mph, SW100%10000m1010hPa49%
23-Apr-2024 00:00Overcast Clouds16°C13 mph, SW98%10000m1010hPa64%
23-Apr-2024 03:00Light Rain14°C18 mph, S100%10000m1008hPa76%
23-Apr-2024 06:00Light Rain14°C16 mph, SW100%8844m1009hPa82%
23-Apr-2024 09:00Moderate Rain13°C13 mph, W100%10000m1009hPa97%
23-Apr-2024 12:00Light Rain12°C7 mph, W100%10000m1010hPa98%
23-Apr-2024 15:00Broken Clouds15°C13 mph, NW63%10000m1011hPa58%
23-Apr-2024 18:00Broken Clouds17°C20 mph, NW60%10000m1012hPa44%
23-Apr-2024 21:00Light Rain14°C20 mph, NW46%10000m1015hPa63%
24-Apr-2024 00:00Scattered Clouds9°C18 mph, N43%10000m1020hPa70%